Vol initiation au vol en patrouille.

Vol initiation au vol en patrouille.

À partir de 2 899,00

Découvrez le pilotage du L39 avec un de nos instructeurs lors d’un vol en patrouille inoubliable.

(ATO FR 0147)

Choisissez 3 périodes sur lesquelles vous souhaiteriez voler ! Nous vous recontacterons afin de réserver une de ces 3 périodes ensemble !

UGS : ND Catégorie :

Les tarifs des vols sont établis sur base d’un prix du carburant à 1,20€ TTC du litre. Toute évolution du prix du carburant au-delà de 1,20€ TTC du litre sera facturée en supplément à raison de 400 litres par vol.
Ce surcoût sera communiqué préalablement aux vols dès connaissance des prix du carburant qui nous sont communiqués chaque début de mois.

En dehors des éventuels ajustements liés au carburant, les tarifs sont valables jusqu’au 31.12.22.

Informations complémentaires

Durée

30 minutes, 45 minutes

Voir toute les actualités.

Avion / Hélicoptère / Simulateur*
Avion
METAR :

LFQA 271930Z AUTO VRB02KT 9999 FEW018/// SCT024/// BKN033/// ///CB 11/10 Q1000


vue en direct sur l'aérodrome
facturation mentions légales politique de confidentialité
Cochet Concept
cx